createdAt,value
2022-10-07T00:00:09.166Z,46.24
2022-10-07T00:02:10.688Z,46.01
2022-10-07T00:04:12.616Z,46.55
2022-10-07T00:06:16.239Z,46.49
2022-10-07T00:08:17.793Z,46.46
2022-10-07T00:10:19.343Z,46.67
2022-10-07T00:12:24.384Z,46.55
2022-10-07T00:14:26.144Z,46.88
2022-10-07T00:16:29.948Z,46.86
2022-10-07T00:18:31.465Z,46.39
2022-10-07T00:20:37.177Z,46.50
2022-10-07T00:22:38.637Z,46.46
2022-10-07T00:24:40.107Z,46.68
2022-10-07T00:26:41.837Z,46.79
2022-10-07T00:28:45.075Z,46.93
2022-10-07T00:30:46.616Z,47.30
2022-10-07T00:32:48.141Z,46.96
2022-10-07T00:34:49.675Z,47.35
2022-10-07T00:36:51.304Z,47.21
2022-10-07T00:38:54.696Z,46.75
2022-10-07T00:40:56.178Z,46.66
2022-10-07T00:42:57.659Z,46.61
2022-10-07T00:45:00.643Z,46.90
2022-10-07T00:47:04.868Z,47.33
2022-10-07T00:49:09.522Z,47.18
2022-10-07T00:51:11.457Z,47.85
2022-10-07T00:53:13.072Z,48.10
2022-10-07T00:55:17.720Z,47.54
2022-10-07T00:57:20.281Z,47.36
2022-10-07T00:59:21.881Z,47.42
2022-10-07T01:01:25.847Z,47.56
2022-10-07T01:03:28.118Z,47.73
2022-10-07T01:05:29.847Z,46.97
2022-10-07T01:07:32.675Z,47.50
2022-10-07T01:09:34.253Z,47.33
2022-10-07T01:11:49.532Z,47.82
2022-10-07T01:14:03.112Z,47.91
2022-10-07T01:16:12.304Z,47.92
2022-10-07T01:18:21.895Z,47.73
2022-10-07T01:20:34.020Z,47.87
2022-10-07T01:22:47.172Z,47.75
2022-10-07T01:25:03.060Z,48.05
2022-10-07T01:27:13.936Z,48.80
2022-10-07T01:29:19.402Z,48.32
2022-10-07T01:31:27.847Z,48.53
2022-10-07T01:33:32.704Z,48.39
2022-10-07T01:35:39.260Z,48.76
2022-10-07T01:37:44.279Z,48.34
2022-10-07T01:39:50.699Z,48.58
2022-10-07T01:41:53.378Z,48.95
2022-10-07T01:43:59.348Z,48.32
2022-10-07T01:46:02.423Z,48.85
2022-10-07T01:48:04.019Z,48.43
2022-10-07T01:50:11.625Z,48.77
2022-10-07T01:52:26.538Z,48.56
2022-10-07T01:54:38.883Z,48.88
2022-10-07T01:56:58.613Z,48.67
2022-10-07T01:59:24.443Z,48.35
2022-10-07T02:01:33.095Z,48.66
2022-10-07T02:03:57.280Z,48.13
2022-10-07T02:06:10.261Z,48.66
2022-10-07T02:08:22.481Z,48.76
2022-10-07T02:10:29.090Z,48.33
2022-10-07T02:12:37.721Z,48.21
2022-10-07T02:14:43.388Z,47.94
2022-10-07T02:16:47.657Z,48.04
2022-10-07T02:18:51.893Z,47.81
2022-10-07T02:20:55.738Z,48.06
2022-10-07T02:23:01.288Z,47.81
2022-10-07T02:25:03.386Z,47.96
2022-10-07T02:27:08.923Z,48.17
2022-10-07T02:29:14.360Z,48.33
2022-10-07T02:31:20.597Z,48.15
2022-10-07T02:33:24.992Z,48.93
2022-10-07T02:35:31.352Z,48.56
2022-10-07T02:37:37.779Z,48.68
2022-10-07T02:39:39.297Z,49.40
2022-10-07T02:41:50.501Z,49.02
2022-10-07T02:43:57.305Z,49.61
2022-10-07T02:46:05.571Z,49.03
2022-10-07T02:48:15.952Z,49.66
2022-10-07T02:50:21.578Z,49.10
2022-10-07T02:52:25.010Z,49.27
2022-10-07T02:54:31.575Z,49.38
2022-10-07T02:56:35.837Z,49.12
2022-10-07T02:58:39.936Z,49.35
2022-10-07T03:00:47.283Z,49.61
2022-10-07T03:02:51.759Z,49.58
2022-10-07T03:04:57.200Z,49.56
2022-10-07T03:06:58.933Z,49.77
2022-10-07T03:09:00.626Z,49.30
2022-10-07T03:11:02.139Z,49.24
2022-10-07T03:13:04.433Z,49.65
2022-10-07T03:15:06.728Z,49.54
2022-10-07T03:17:08.218Z,49.81
2022-10-07T03:19:09.763Z,49.29
2022-10-07T03:21:12.801Z,49.44
2022-10-07T03:23:14.258Z,49.83
2022-10-07T03:25:16.113Z,49.17
2022-10-07T03:27:17.691Z,49.65
2022-10-07T03:29:19.344Z,49.54
2022-10-07T03:31:23.062Z,49.89
2022-10-07T03:33:24.675Z,49.52
2022-10-07T03:35:26.178Z,49.08
2022-10-07T03:37:30.038Z,49.53
2022-10-07T03:39:31.517Z,49.69
2022-10-07T03:41:33.025Z,48.87
2022-10-07T03:43:34.571Z,49.91
2022-10-07T03:45:43.191Z,50.21
2022-10-07T03:47:45.007Z,49.98
2022-10-07T03:49:52.475Z,50.20
2022-10-07T03:51:54.077Z,49.70
2022-10-07T03:53:57.789Z,49.84
2022-10-07T03:55:59.311Z,49.72
2022-10-07T03:58:00.851Z,50.10
2022-10-07T04:00:02.484Z,49.88
2022-10-07T04:02:07.125Z,49.81
2022-10-07T04:04:08.699Z,49.74
2022-10-07T04:06:10.149Z,49.51
2022-10-07T04:08:12.167Z,49.83
2022-10-07T04:10:17.109Z,49.31
2022-10-07T04:12:18.587Z,49.58
2022-10-07T04:14:20.145Z,49.72
2022-10-07T04:16:21.963Z,49.16
2022-10-07T04:18:24.233Z,49.70
2022-10-07T04:20:26.512Z,50.05
2022-10-07T04:23:05.418Z,49.86
2022-10-07T04:25:08.331Z,49.85
2022-10-07T04:27:23.477Z,50.09
2022-10-07T04:29:38.138Z,49.72
2022-10-07T04:31:40.642Z,50.17
2022-10-07T04:33:42.422Z,50.16
2022-10-07T04:35:43.961Z,49.86
2022-10-07T04:37:48.047Z,49.69
2022-10-07T04:40:00.640Z,49.88
2022-10-07T04:42:02.676Z,49.95
2022-10-07T04:44:05.521Z,49.94
2022-10-07T04:46:08.602Z,50.69
2022-10-07T04:48:10.184Z,50.15
2022-10-07T04:50:11.722Z,50.71
2022-10-07T04:52:13.234Z,50.57
2022-10-07T04:54:14.749Z,50.74
2022-10-07T04:56:16.296Z,51.01
2022-10-07T04:58:19.245Z,50.99
2022-10-07T05:00:22.080Z,50.79
2022-10-07T05:02:23.860Z,50.78
2022-10-07T05:04:25.433Z,50.50
2022-10-07T05:06:27.015Z,51.03
2022-10-07T05:08:28.619Z,50.52
2022-10-07T05:10:30.178Z,51.33
2022-10-07T05:12:31.770Z,51.04
2022-10-07T05:14:33.475Z,51.05
2022-10-07T05:16:36.378Z,50.61
2022-10-07T05:18:38.072Z,51.07
2022-10-07T05:20:39.694Z,50.70
2022-10-07T05:22:41.415Z,50.74
2022-10-07T05:24:42.911Z,50.59
2022-10-07T05:26:44.442Z,51.03
2022-10-07T05:28:46.227Z,50.37
2022-10-07T05:30:47.750Z,50.58
2022-10-07T05:32:51.278Z,51.16
2022-10-07T05:34:52.780Z,51.42
2022-10-07T05:36:54.244Z,50.82
2022-10-07T05:38:56.324Z,51.25
2022-10-07T05:40:58.841Z,50.45
2022-10-07T05:43:00.362Z,50.89
2022-10-07T05:45:01.996Z,50.81
2022-10-07T05:47:03.509Z,50.59
2022-10-07T05:49:06.326Z,50.92
2022-10-07T05:51:08.597Z,51.09
2022-10-07T05:53:10.110Z,50.97
2022-10-07T05:55:12.054Z,51.44
2022-10-07T05:57:13.628Z,50.85
2022-10-07T05:59:15.250Z,50.53
2022-10-07T06:01:19.010Z,50.55
2022-10-07T06:03:21.375Z,50.96
2022-10-07T06:05:24.746Z,51.39
2022-10-07T06:07:29.340Z,51.02
2022-10-07T06:09:31.118Z,50.68
2022-10-07T06:11:32.751Z,51.27
2022-10-07T06:13:35.202Z,50.83
2022-10-07T06:15:37.224Z,50.77
2022-10-07T06:17:42.294Z,50.70
2022-10-07T06:19:44.073Z,50.83
2022-10-07T06:21:46.922Z,51.21
2022-10-07T06:23:50.088Z,51.44
2022-10-07T06:25:54.183Z,51.43
2022-10-07T06:27:56.369Z,51.50
2022-10-07T06:29:58.095Z,51.16
2022-10-07T06:32:00.064Z,51.12
2022-10-07T06:34:01.955Z,51.69
2022-10-07T06:36:04.679Z,51.22
2022-10-07T06:38:07.824Z,50.74
2022-10-07T06:40:10.440Z,50.62
2022-10-07T06:42:11.986Z,51.54
2022-10-07T06:44:13.675Z,51.44
2022-10-07T06:46:17.377Z,50.98
2022-10-07T06:48:19.254Z,50.94
2022-10-07T06:50:20.875Z,51.30
2022-10-07T06:52:22.569Z,50.29
2022-10-07T06:54:25.548Z,50.70
2022-10-07T06:56:27.218Z,51.39
2022-10-07T06:58:29.102Z,51.50
2022-10-07T07:00:32.835Z,50.79
2022-10-07T07:02:34.533Z,51.42
2022-10-07T07:04:36.126Z,51.35
2022-10-07T07:06:38.362Z,50.49
2022-10-07T07:08:40.123Z,50.50
2022-10-07T07:10:44.603Z,51.13
2022-10-07T07:12:48.795Z,50.16
2022-10-07T07:14:50.790Z,50.20
2022-10-07T07:16:52.440Z,50.03
2022-10-07T07:18:55.084Z,49.58
2022-10-07T07:21:02.330Z,49.77
2022-10-07T07:23:04.958Z,49.96
2022-10-07T07:25:07.572Z,49.43
2022-10-07T07:27:10.493Z,49.55
2022-10-07T07:29:13.004Z,50.07
2022-10-07T07:31:14.752Z,48.93
2022-10-07T07:33:16.288Z,49.67
2022-10-07T07:35:17.865Z,49.56
2022-10-07T07:37:19.627Z,48.78
2022-10-07T07:39:21.468Z,49.46
2022-10-07T07:41:26.028Z,49.57
2022-10-07T07:43:29.201Z,49.26
2022-10-07T07:45:30.928Z,48.91
2022-10-07T07:47:32.472Z,48.67
2022-10-07T07:49:34.325Z,49.09
2022-10-07T07:51:36.858Z,49.12
2022-10-07T07:53:38.842Z,48.01
2022-10-07T07:55:40.383Z,47.86
2022-10-07T07:57:41.970Z,47.94
2022-10-07T07:59:47.638Z,47.49
2022-10-07T08:01:49.528Z,46.55
2022-10-07T08:03:51.707Z,46.91
2022-10-07T08:05:53.780Z,47.03
2022-10-07T08:07:55.279Z,47.00
2022-10-07T08:09:56.843Z,46.99
2022-10-07T08:12:02.810Z,46.01
2022-10-07T08:14:04.309Z,46.58
2022-10-07T08:16:07.554Z,46.46
2022-10-07T08:18:09.274Z,46.50
2022-10-07T08:20:10.833Z,46.44
2022-10-07T08:22:12.427Z,47.06
2022-10-07T08:24:13.947Z,46.59
2022-10-07T08:26:15.943Z,45.82
2022-10-07T08:28:17.834Z,46.14
2022-10-07T08:30:19.381Z,45.98
2022-10-07T08:32:22.301Z,45.62
2022-10-07T08:34:23.997Z,45.99
2022-10-07T08:36:27.791Z,46.23
2022-10-07T08:38:30.499Z,45.80
2022-10-07T08:40:32.118Z,45.65
2022-10-07T08:42:37.312Z,44.52
2022-10-07T08:44:41.370Z,44.40
2022-10-07T08:46:51.713Z,44.41
2022-10-07T08:48:59.319Z,45.47
2022-10-07T08:51:09.253Z,45.00
2022-10-07T08:53:17.384Z,44.82
2022-10-07T08:55:27.036Z,45.97
2022-10-07T08:57:46.990Z,45.42
2022-10-07T08:59:55.432Z,45.34
2022-10-07T09:02:12.400Z,44.97
2022-10-07T09:04:27.833Z,44.78
2022-10-07T09:06:33.734Z,44.98
2022-10-07T09:08:40.837Z,44.65
2022-10-07T09:10:49.165Z,45.26
2022-10-07T09:12:56.966Z,45.09
2022-10-07T09:15:00.576Z,44.94
2022-10-07T09:17:08.272Z,44.25
2022-10-07T09:19:20.136Z,44.77
2022-10-07T09:21:27.235Z,43.67
2022-10-07T09:23:30.968Z,44.64
2022-10-07T09:25:32.544Z,44.63
2022-10-07T09:27:34.208Z,44.20
2022-10-07T09:29:36.261Z,43.44
2022-10-07T09:31:38.259Z,43.14
2022-10-07T09:33:45.258Z,42.54
2022-10-07T09:35:57.362Z,42.88
2022-10-07T09:38:01.818Z,42.54
2022-10-07T09:40:20.148Z,42.70
2022-10-07T09:42:33.533Z,42.67
2022-10-07T09:44:36.380Z,42.80
2022-10-07T09:46:44.835Z,43.14
2022-10-07T09:48:52.249Z,43.22
2022-10-07T09:51:12.491Z,43.15
2022-10-07T09:53:20.040Z,42.38
2022-10-07T09:55:29.204Z,42.75
2022-10-07T09:57:33.804Z,42.66
2022-10-07T09:59:36.832Z,42.79
2022-10-07T10:01:38.636Z,42.69
2022-10-07T10:03:40.344Z,43.04
2022-10-07T10:05:52.142Z,43.03
2022-10-07T10:07:58.603Z,42.12
2022-10-07T10:10:04.637Z,42.06
2022-10-07T10:12:14.540Z,42.01
2022-10-07T10:14:28.132Z,42.23
2022-10-07T10:16:33.341Z,41.61
2022-10-07T10:18:37.881Z,41.46
2022-10-07T10:20:39.520Z,42.23
2022-10-07T10:22:41.113Z,42.42
2022-10-07T10:24:44.355Z,41.93
2022-10-07T10:26:58.489Z,42.22
2022-10-07T10:29:10.227Z,42.24
2022-10-07T10:31:23.853Z,41.65
2022-10-07T10:33:33.814Z,40.96
2022-10-07T10:35:42.844Z,41.51
2022-10-07T10:38:04.502Z,40.81
2022-10-07T10:40:20.512Z,39.91
2022-10-07T10:42:31.280Z,41.25
2022-10-07T10:44:48.435Z,39.96
2022-10-07T10:47:00.401Z,39.38
2022-10-07T10:49:09.842Z,38.20
2022-10-07T10:51:21.731Z,38.94
2022-10-07T10:53:40.196Z,38.18
2022-10-07T10:56:05.042Z,36.69
2022-10-07T10:58:21.216Z,36.46
2022-10-07T11:00:23.463Z,36.15
2022-10-07T11:03:00.130Z,35.29
2022-10-07T11:05:05.036Z,34.95
2022-10-07T11:07:10.481Z,34.61
2022-10-07T11:09:19.787Z,34.18
2022-10-07T11:11:23.370Z,34.80
2022-10-07T11:13:33.432Z,34.57
2022-10-07T11:15:41.474Z,35.44
2022-10-07T11:17:47.304Z,36.08
2022-10-07T11:19:55.223Z,36.23
2022-10-07T11:21:58.605Z,36.48
2022-10-07T11:24:03.557Z,35.63
2022-10-07T11:26:13.708Z,36.74
2022-10-07T11:28:21.011Z,36.44
2022-10-07T11:30:23.785Z,36.25
2022-10-07T11:32:31.101Z,35.09
2022-10-07T11:34:43.458Z,35.31
2022-10-07T11:36:55.274Z,35.59
2022-10-07T11:38:56.939Z,35.82
2022-10-07T11:41:03.259Z,36.05
2022-10-07T11:43:08.645Z,35.72
2022-10-07T11:45:18.143Z,34.87
2022-10-07T11:47:23.984Z,33.54
2022-10-07T11:49:31.957Z,31.96
2022-10-07T11:51:36.705Z,31.86
2022-10-07T11:53:40.462Z,31.40
2022-10-07T11:55:49.430Z,30.55
2022-10-07T11:57:57.024Z,29.99
2022-10-07T12:00:01.432Z,29.58
2022-10-07T12:02:05.220Z,29.06
2022-10-07T12:04:30.824Z,28.48
2022-10-07T12:06:32.610Z,30.09
2022-10-07T12:08:36.402Z,30.02
2022-10-07T12:10:38.803Z,30.28
2022-10-07T12:12:48.481Z,30.37
2022-10-07T12:15:01.492Z,30.60
2022-10-07T12:17:25.936Z,31.26
2022-10-07T12:19:28.067Z,31.55
2022-10-07T12:21:30.013Z,31.08
2022-10-07T12:23:40.556Z,31.27
2022-10-07T12:25:43.892Z,32.62
2022-10-07T12:27:46.205Z,33.80
2022-10-07T12:29:51.716Z,34.32
2022-10-07T12:31:53.637Z,35.57
2022-10-07T12:34:09.866Z,34.51
2022-10-07T12:36:28.391Z,33.99
2022-10-07T12:38:30.799Z,35.05
2022-10-07T12:40:35.374Z,35.35
2022-10-07T12:42:37.700Z,36.00
2022-10-07T12:44:44.492Z,35.74
2022-10-07T12:46:50.583Z,35.50
2022-10-07T12:49:00.457Z,35.82
2022-10-07T12:51:05.011Z,36.36
2022-10-07T12:53:09.902Z,37.10
2022-10-07T12:55:17.578Z,37.03
2022-10-07T12:57:22.765Z,38.19
2022-10-07T12:59:42.403Z,38.71
2022-10-07T13:02:10.501Z,37.80
2022-10-07T13:04:42.118Z,39.33
2022-10-07T13:07:25.936Z,39.34
2022-10-07T13:09:53.095Z,37.45
2022-10-07T13:12:13.392Z,37.94
2022-10-07T13:14:20.796Z,38.62
2022-10-07T13:16:28.545Z,40.05
2022-10-07T13:18:40.333Z,39.56
2022-10-07T13:21:11.513Z,39.78
2022-10-07T13:23:16.329Z,38.55
2022-10-07T13:25:20.041Z,39.01
2022-10-07T13:27:26.214Z,38.81
2022-10-07T13:29:30.445Z,39.32
2022-10-07T13:31:32.145Z,40.16
2022-10-07T13:33:33.782Z,40.14
2022-10-07T13:35:39.507Z,38.90
2022-10-07T13:37:46.753Z,40.82
2022-10-07T13:39:48.444Z,39.98
2022-10-07T13:41:52.540Z,41.72
2022-10-07T13:43:59.227Z,41.40
2022-10-07T13:46:02.572Z,41.16
2022-10-07T13:48:04.917Z,42.01
2022-10-07T13:50:10.476Z,41.93
2022-10-07T13:52:20.416Z,40.30
2022-10-07T13:54:26.592Z,40.43
2022-10-07T13:56:30.901Z,43.02
2022-10-07T13:58:32.914Z,41.59
2022-10-07T14:00:41.580Z,42.72
2022-10-07T14:02:43.583Z,42.69
2022-10-07T14:04:52.641Z,41.33
2022-10-07T14:07:01.553Z,42.09
2022-10-07T14:09:03.424Z,41.93
2022-10-07T14:11:16.715Z,41.08
2022-10-07T14:13:18.393Z,42.37
2022-10-07T14:15:21.681Z,41.22
2022-10-07T14:17:30.454Z,41.64
2022-10-07T14:19:32.862Z,41.83
2022-10-07T14:21:40.244Z,41.64
2022-10-07T14:23:41.853Z,43.11
2022-10-07T14:25:52.671Z,41.65
2022-10-07T14:28:17.637Z,42.59
2022-10-07T14:30:40.828Z,41.90
2022-10-07T14:32:42.515Z,41.60
2022-10-07T14:34:44.165Z,42.51
2022-10-07T14:37:02.805Z,43.00
2022-10-07T14:39:22.617Z,42.50
2022-10-07T14:41:27.613Z,43.14
2022-10-07T14:43:32.601Z,42.88
2022-10-07T14:45:36.909Z,42.28
2022-10-07T14:47:38.523Z,44.04
2022-10-07T14:49:40.592Z,42.92
2022-10-07T14:51:44.870Z,44.31
2022-10-07T14:53:48.253Z,43.52
2022-10-07T14:55:49.966Z,43.70
2022-10-07T14:57:52.091Z,43.09
2022-10-07T14:59:55.371Z,43.99
2022-10-07T15:01:57.344Z,43.95
2022-10-07T15:03:59.195Z,45.11
2022-10-07T15:06:01.187Z,44.14
2022-10-07T15:08:03.043Z,44.83
2022-10-07T15:10:11.950Z,43.26
2022-10-07T15:12:16.660Z,44.08
2022-10-07T15:14:18.324Z,43.87
2022-10-07T15:16:23.834Z,43.68
2022-10-07T15:18:25.659Z,44.42
2022-10-07T15:20:27.411Z,45.21
2022-10-07T15:22:32.103Z,43.92
2022-10-07T15:24:33.758Z,44.14
2022-10-07T15:26:35.284Z,44.62
2022-10-07T15:28:36.918Z,45.37
2022-10-07T15:30:39.630Z,44.20
2022-10-07T15:32:43.093Z,44.55
2022-10-07T15:34:44.892Z,44.43
2022-10-07T15:36:46.474Z,45.73
2022-10-07T15:38:48.294Z,45.07
2022-10-07T15:40:52.904Z,47.41
2022-10-07T15:42:54.475Z,46.26
2022-10-07T15:44:56.109Z,46.44
2022-10-07T15:46:57.662Z,45.65
2022-10-07T15:49:00.646Z,45.36
2022-10-07T15:51:02.326Z,45.74
2022-10-07T15:53:04.024Z,46.11
2022-10-07T15:55:07.740Z,47.13
2022-10-07T15:57:09.525Z,46.52
2022-10-07T15:59:11.118Z,45.14
2022-10-07T16:01:12.712Z,45.87
2022-10-07T16:03:14.401Z,47.45
2022-10-07T16:05:17.693Z,46.60
2022-10-07T16:07:19.494Z,48.03
2022-10-07T16:09:22.447Z,47.41
2022-10-07T16:11:25.147Z,45.36
2022-10-07T16:13:26.716Z,47.42
2022-10-07T16:15:28.683Z,46.67
2022-10-07T16:17:30.427Z,47.19
2022-10-07T16:19:31.967Z,46.74
2022-10-07T16:21:36.706Z,47.35
2022-10-07T16:23:40.787Z,46.29
2022-10-07T16:25:42.394Z,46.39
2022-10-07T16:27:44.418Z,47.58
2022-10-07T16:29:46.149Z,46.99
2022-10-07T16:31:48.814Z,46.72
2022-10-07T16:33:51.029Z,48.33
2022-10-07T16:35:52.549Z,47.90
2022-10-07T16:37:56.120Z,48.55
2022-10-07T16:39:58.042Z,49.17
2022-10-07T16:41:59.799Z,48.85
2022-10-07T16:44:02.431Z,47.95
2022-10-07T16:46:05.613Z,47.94
2022-10-07T16:48:07.284Z,48.39
2022-10-07T16:50:11.119Z,48.38
2022-10-07T16:52:12.889Z,48.98
2022-10-07T16:54:20.423Z,48.55
2022-10-07T16:56:22.932Z,48.28
2022-10-07T16:58:24.598Z,48.58
2022-10-07T17:00:26.167Z,48.27
2022-10-07T17:02:27.836Z,48.91
2022-10-07T17:04:32.336Z,48.30
2022-10-07T17:06:34.633Z,49.20
2022-10-07T17:08:42.795Z,47.98
2022-10-07T17:10:48.160Z,48.49
2022-10-07T17:12:50.131Z,48.45
2022-10-07T17:14:52.078Z,48.85
2022-10-07T17:16:56.698Z,49.36
2022-10-07T17:18:58.623Z,48.76
2022-10-07T17:21:00.443Z,49.58
2022-10-07T17:23:02.476Z,48.49
2022-10-07T17:25:04.550Z,49.50
2022-10-07T17:27:07.422Z,48.63
2022-10-07T17:29:10.641Z,48.99
2022-10-07T17:31:13.379Z,48.82
2022-10-07T17:33:15.486Z,48.60
2022-10-07T17:35:17.198Z,50.11
2022-10-07T17:37:18.966Z,49.52
2022-10-07T17:39:20.979Z,49.26
2022-10-07T17:41:27.552Z,49.91
2022-10-07T17:43:30.846Z,50.54
2022-10-07T17:45:34.685Z,50.27
2022-10-07T17:47:36.304Z,50.00
2022-10-07T17:49:37.802Z,50.28
2022-10-07T17:51:39.461Z,49.93
2022-10-07T17:53:41.634Z,50.11
2022-10-07T17:55:50.554Z,50.10
2022-10-07T17:57:52.119Z,50.40
2022-10-07T17:59:55.253Z,50.21
2022-10-07T18:01:56.854Z,50.34
2022-10-07T18:04:01.559Z,50.34
2022-10-07T18:06:05.438Z,50.19
2022-10-07T18:08:07.023Z,50.59
2022-10-07T18:10:08.927Z,50.52
2022-10-07T18:12:10.731Z,50.44
2022-10-07T18:14:12.855Z,50.32
2022-10-07T18:16:16.314Z,50.36
2022-10-07T18:18:17.953Z,50.58
2022-10-07T18:20:20.480Z,51.01
2022-10-07T18:22:22.091Z,50.73
2022-10-07T18:24:24.433Z,51.09
2022-10-07T18:26:26.128Z,51.10
2022-10-07T18:28:28.599Z,51.30
2022-10-07T18:30:30.646Z,51.47
2022-10-07T18:32:34.334Z,51.52
2022-10-07T18:34:36.271Z,51.07
2022-10-07T18:36:38.047Z,51.47
2022-10-07T18:38:41.413Z,51.42
2022-10-07T18:40:43.673Z,51.59
2022-10-07T18:42:45.315Z,51.61
2022-10-07T18:44:47.274Z,51.24
2022-10-07T18:46:49.064Z,51.94
2022-10-07T18:48:52.200Z,51.84
2022-10-07T18:50:53.837Z,52.36
2022-10-07T18:52:55.782Z,52.52
2022-10-07T18:54:57.448Z,52.35
2022-10-07T18:56:59.378Z,52.04
2022-10-07T18:59:00.936Z,52.72
2022-10-07T19:01:06.619Z,52.46
2022-10-07T19:03:09.163Z,52.20
2022-10-07T19:05:12.464Z,52.69
2022-10-07T19:07:14.228Z,52.59
2022-10-07T19:09:18.440Z,52.73
2022-10-07T19:11:20.206Z,52.31
2022-10-07T19:13:21.833Z,52.11
2022-10-07T19:15:23.592Z,52.76
2022-10-07T19:17:25.430Z,52.85
2022-10-07T19:19:27.110Z,52.94
2022-10-07T19:21:30.880Z,53.05
2022-10-07T19:23:32.480Z,53.44
2022-10-07T19:25:34.131Z,53.31
2022-10-07T19:27:36.440Z,53.40
2022-10-07T19:29:38.074Z,53.66
2022-10-07T19:31:41.365Z,53.36
2022-10-07T19:33:43.681Z,53.46
2022-10-07T19:35:45.647Z,53.51
2022-10-07T19:37:48.919Z,53.31
2022-10-07T19:39:51.285Z,53.30
2022-10-07T19:41:52.930Z,53.27
2022-10-07T19:43:55.263Z,53.57
2022-10-07T19:45:59.766Z,52.97
2022-10-07T19:48:02.049Z,53.38
2022-10-07T19:50:03.919Z,53.81
2022-10-07T19:52:05.523Z,53.54
2022-10-07T19:54:08.836Z,53.63
2022-10-07T19:56:16.211Z,53.74
2022-10-07T19:58:18.107Z,53.79
2022-10-07T20:00:19.872Z,53.88
2022-10-07T20:02:21.587Z,53.81
2022-10-07T20:04:23.161Z,53.77
2022-10-07T20:06:25.092Z,53.98
2022-10-07T20:08:28.005Z,54.17
2022-10-07T20:10:31.242Z,54.45
2022-10-07T20:12:32.845Z,54.06
2022-10-07T20:14:34.807Z,54.21
2022-10-07T20:18:39.106Z,54.10
2022-10-07T20:20:43.579Z,54.71
2022-10-07T20:22:49.240Z,54.50
2022-10-07T20:24:51.102Z,54.26
2022-10-07T20:26:54.635Z,54.23
2022-10-07T20:28:59.145Z,54.30
2022-10-07T20:31:05.636Z,53.82
2022-10-07T20:33:07.189Z,54.10
2022-10-07T20:35:09.011Z,53.91
2022-10-07T20:37:13.614Z,53.94
2022-10-07T20:39:16.898Z,54.24
2022-10-07T20:41:18.776Z,54.59
2022-10-07T20:43:22.068Z,54.19
2022-10-07T20:45:23.741Z,54.48
2022-10-07T20:47:26.717Z,54.96
2022-10-07T20:49:28.407Z,54.56
2022-10-07T20:51:29.970Z,54.88
2022-10-07T20:53:31.709Z,55.26
2022-10-07T20:55:36.428Z,55.62
2022-10-07T20:57:38.128Z,54.94
2022-10-07T20:59:41.085Z,55.42
2022-10-07T21:01:42.855Z,55.01
2022-10-07T21:03:44.459Z,55.02
2022-10-07T21:05:48.037Z,55.42
2022-10-07T21:07:54.396Z,55.15
2022-10-07T21:09:56.495Z,55.61
2022-10-07T21:11:58.146Z,55.14
2022-10-07T21:13:59.756Z,55.21
2022-10-07T21:16:11.458Z,55.40
2022-10-07T21:18:13.053Z,55.20
2022-10-07T21:20:14.697Z,55.62
2022-10-07T21:22:16.263Z,55.22
2022-10-07T21:24:18.024Z,55.64
2022-10-07T21:26:20.382Z,55.25
2022-10-07T21:28:22.001Z,55.59
2022-10-07T21:30:23.630Z,55.83
2022-10-07T21:32:26.641Z,55.19
2022-10-07T21:34:28.300Z,55.49
2022-10-07T21:36:29.839Z,55.65
2022-10-07T21:38:31.645Z,55.39
2022-10-07T21:40:33.394Z,55.98
2022-10-07T21:42:35.100Z,55.70
2022-10-07T21:44:36.610Z,56.12
2022-10-07T21:46:39.183Z,56.12
2022-10-07T21:48:42.205Z,55.79
2022-10-07T21:50:43.695Z,55.79
2022-10-07T21:52:48.479Z,55.79
2022-10-07T21:54:50.553Z,55.40
2022-10-07T21:56:52.058Z,55.50
2022-10-07T21:58:55.549Z,55.68
2022-10-07T22:00:57.402Z,55.75
2022-10-07T22:02:59.059Z,55.51
2022-10-07T22:05:02.058Z,55.59
2022-10-07T22:07:03.628Z,55.45
2022-10-07T22:09:05.361Z,55.98
2022-10-07T22:11:09.233Z,55.95
2022-10-07T22:13:10.812Z,56.31
2022-10-07T22:15:12.487Z,56.02
2022-10-07T22:17:14.214Z,56.70
2022-10-07T22:19:16.382Z,56.29
2022-10-07T22:21:20.858Z,56.20
2022-10-07T22:23:22.600Z,56.43
2022-10-07T22:25:24.145Z,56.15
2022-10-07T22:27:25.644Z,56.84
2022-10-07T22:29:27.369Z,56.55
2022-10-07T22:31:29.096Z,56.53
2022-10-07T22:33:30.923Z,56.48
2022-10-07T22:35:32.528Z,56.12
2022-10-07T22:37:36.035Z,56.32
2022-10-07T22:39:37.526Z,56.25
2022-10-07T22:41:39.226Z,56.39
2022-10-07T22:43:42.205Z,57.01
2022-10-07T22:45:43.845Z,56.25
2022-10-07T22:47:45.596Z,56.67
2022-10-07T22:49:47.175Z,56.85
2022-10-07T22:51:48.779Z,56.92
2022-10-07T22:53:53.992Z,56.78
2022-10-07T22:55:55.791Z,56.53
2022-10-07T22:57:57.655Z,56.53
2022-10-07T22:59:59.617Z,56.70
2022-10-07T23:02:01.453Z,56.33
2022-10-07T23:04:04.064Z,56.30
2022-10-07T23:06:06.516Z,56.32
2022-10-07T23:08:08.154Z,56.38
2022-10-07T23:10:11.247Z,56.50
2022-10-07T23:12:12.887Z,56.44
2022-10-07T23:14:14.424Z,56.79
2022-10-07T23:16:17.887Z,56.46
2022-10-07T23:18:19.489Z,56.88
2022-10-07T23:20:21.154Z,56.65
2022-10-07T23:22:22.786Z,56.94
2022-10-07T23:24:24.369Z,56.42
2022-10-07T23:26:31.220Z,56.69
2022-10-07T23:28:33.953Z,57.19
2022-10-07T23:30:36.845Z,57.21
2022-10-07T23:32:38.367Z,56.92
2022-10-07T23:34:39.894Z,57.29
2022-10-07T23:36:41.659Z,57.43
2022-10-07T23:38:43.623Z,57.27
2022-10-07T23:40:45.219Z,56.98
2022-10-07T23:42:50.689Z,57.61
2022-10-07T23:44:52.334Z,57.21
2022-10-07T23:46:54.053Z,57.67
2022-10-07T23:48:55.730Z,57.74
2022-10-07T23:50:57.274Z,57.70
2022-10-07T23:52:58.904Z,57.59
2022-10-07T23:55:00.669Z,57.97
2022-10-07T23:57:02.402Z,57.74
2022-10-07T23:59:08.450Z,58.09
